Portada
METAR-TAF:

METAR-TAF

Aeroports :

Kiritimati, Kiribati

latitud: 01-59N, longitud: 157-29W, altitud: 3 m

Observació

L'informe es va fer fa 1 hora i 11 minuts, a les 01:00 UTC
Vent 5 kt del Nord-Est
Temperatura 29°C
Humitat 74%
Pressió 1009 hPa
Visibilitat 10 km o més
Escasses núvols a una alçada de 2000 ft

METAR: PLCH 270100Z 05005KT 9999 FEW020 29/24 Q1009

Hora: 16:11 (02:11 UTC)

Pronòstic

L'informe es va fer fa 2 hores i 59 minuts, a les 23:12 UTC
Pronòstic vàlid del 27 a les 00 UTC al 27 a les 24 UTC
Vent 8 kt del Est
Visibilitat 10 km o més
Núvols disperses a una alçada de 1700 ft
Núvols disperses a una alçada de 4000 ft

TAF: PLCH 262312Z 2700/2724 10008KT 9999 SCT017 SCT040

Observacions i pronòstics meteorològics de més de 4000 aeroports (METAR i TAF).

Les estacions disponibles són els punts grocs i vermells al mapa.

Posi el ratolí al punt desitjat per veure el nom de l'estació.

Feu clic per veure les observacions i els pronòstics meteorològics.

Per canviar el mapa: feu clic els botons verds amb una creu de color negre per apropar; al botó verd amb un guió per allunyar la imatge; o en les fletxes verdes per a mapes adjacents.


METAR-TAF: